Time;durP1;ratioP1;P1;durP2;ratioP2;P2;SDS_P1;SDS_P2;PMS_P1;PMS_P2;Temp;Humidity;BMP_temperature;BMP_pressure;BME280_temperature;BME280_humidity;BME280_pressure;Samples;Min_cycle;Max_cycle;Signal;HPM_P1;HPM_P2
2020/12/14 00:01:05;;;;;;;7.78;5.40;;;3.50;99.90;;;;;;4971585;28;20034;-77
2020/12/14 00:03:32;;;;;;;8.80;5.80;;;3.50;99.90;;;;;;4972285;28;20452;-78
2020/12/14 00:05:58;;;;;;;7.47;5.78;;;;;;;;;;4954134;28;20038;-77
2020/12/14 00:08:24;;;;;;;8.70;5.63;;;;;;;;;;4969745;28;20031;-78
2020/12/14 00:10:50;;;;;;;8.25;5.63;;;3.50;99.90;;;;;;4971495;28;20037;-77
2020/12/14 00:13:16;;;;;;;7.60;5.82;;;3.60;99.90;;;;;;4971501;28;20434;-78
2020/12/14 00:15:41;;;;;;;8.75;5.82;;;3.60;99.90;;;;;;4970170;28;20080;-78
2020/12/14 00:18:07;;;;;;;8.50;6.00;;;3.70;99.90;;;;;;4971714;28;20023;-78
2020/12/14 00:20:32;;;;;;;9.25;6.43;;;3.80;99.90;;;;;;4970252;28;20106;-77
2020/12/14 00:22:58;;;;;;;10.77;6.85;;;3.80;99.90;;;;;;4969578;28;20045;-77
2020/12/14 00:25:23;;;;;;;8.35;5.93;;;3.80;99.90;;;;;;4969014;28;20142;-78
2020/12/14 00:27:49;;;;;;;8.38;6.10;;;3.90;99.90;;;;;;4970700;28;20038;-77
2020/12/14 00:30:15;;;;;;;7.68;5.90;;;3.90;99.90;;;;;;4970535;28;20093;-78
2020/12/14 00:32:40;;;;;;;9.95;6.03;;;3.90;99.90;;;;;;4970776;28;20385;-78
2020/12/14 00:35:06;;;;;;;9.27;6.10;;;3.80;99.90;;;;;;4969130;28;20074;-77
2020/12/14 00:37:31;;;;;;;8.93;6.22;;;3.70;99.90;;;;;;4970880;28;20086;-77
2020/12/14 00:39:57;;;;;;;8.63;5.85;;;3.70;99.90;;;;;;4968987;28;20023;-75
2020/12/14 00:42:23;;;;;;;9.00;6.03;;;3.50;99.90;;;;;;4969241;28;20030;-77
2020/12/14 00:44:49;;;;;;;10.38;7.00;;;;;;;;;;4969743;28;20039;-77
2020/12/14 00:47:16;;;;;;;12.10;8.75;;;;;;;;;;4968743;28;20031;-77
2020/12/14 00:49:43;;;;;;;13.13;9.13;;;;;;;;;;4967359;28;20038;-77
2020/12/14 00:52:09;;;;;;;12.13;8.48;;;;;;;;;;4968469;28;20058;-77
2020/12/14 00:54:35;;;;;;;13.55;8.80;;;;;;;;;;4969162;28;20038;-78
2020/12/14 00:57:02;;;;;;;11.35;8.35;;;;;;;;;;4970354;28;20038;-77
2020/12/14 00:59:27;;;;;;;15.00;8.50;;;2.90;99.90;;;;;;4969030;28;20054;-77
2020/12/14 01:01:53;;;;;;;11.30;7.72;;;2.00;99.90;;;;;;4968288;28;20061;-77
2020/12/14 01:04:20;;;;;;;11.35;7.75;;;2.20;99.90;;;;;;4968898;28;20106;-77
2020/12/14 01:06:46;;;;;;;11.02;7.68;;;2.30;99.90;;;;;;4968188;28;20031;-78
2020/12/14 01:09:12;;;;;;;11.30;8.65;;;2.40;99.90;;;;;;4970315;28;20379;-77
2020/12/14 01:11:37;;;;;;;12.13;7.07;;;2.00;99.90;;;;;;4970074;28;20035;-77
2020/12/14 01:14:03;;;;;;;10.07;6.88;;;2.20;99.90;;;;;;4969870;28;20022;-78
2020/12/14 01:16:29;;;;;;;9.52;6.80;;;2.50;99.90;;;;;;4968530;28;20113;-77
2020/12/14 01:18:54;;;;;;;9.38;6.47;;;2.50;99.90;;;;;;4969009;28;20033;-77
2020/12/14 01:21:21;;;;;;;9.50;6.63;;;2.50;99.90;;;;;;4969895;28;20117;-77
2020/12/14 01:23:48;;;;;;;10.60;7.80;;;2.30;99.90;;;;;;4969476;28;20038;-77
2020/12/14 01:26:13;;;;;;;10.05;7.40;;;2.20;99.90;;;;;;4969177;28;20116;-77
2020/12/14 01:28:39;;;;;;;12.32;7.63;;;2.10;99.90;;;;;;4968548;28;20482;-77
2020/12/14 01:31:05;;;;;;;11.55;7.78;;;2.10;99.90;;;;;;4967588;28;20039;-76
2020/12/14 01:33:30;;;;;;;10.88;7.15;;;2.10;99.90;;;;;;4969224;28;20389;-77
2020/12/14 01:35:56;;;;;;;10.82;7.47;;;2.10;99.90;;;;;;4968257;28;20022;-77
2020/12/14 01:38:22;;;;;;;9.88;6.72;;;2.10;99.90;;;;;;4969036;28;20023;-77
2020/12/14 01:40:47;;;;;;;10.85;7.65;;;2.40;99.90;;;;;;4968333;28;20462;-77
2020/12/14 01:43:13;;;;;;;8.90;6.68;;;2.50;99.90;;;;;;4969586;28;20019;-77
2020/12/14 01:45:39;;;;;;;10.70;7.88;;;2.40;99.90;;;;;;4968878;28;20109;-77
2020/12/14 01:48:08;;;;;;;9.00;6.82;;;2.30;99.90;;;;;;4969474;28;20425;-77
2020/12/14 01:50:37;;;;;;;9.75;7.43;;;2.20;99.90;;;;;;4969527;28;20102;-77
2020/12/14 01:53:06;;;;;;;11.70;7.88;;;2.30;99.90;;;;;;4968993;28;20109;-78
2020/12/14 01:55:36;;;;;;;10.38;7.40;;;2.20;99.90;;;;;;4967683;28;20905;-78
2020/12/14 01:58:02;;;;;;;10.93;7.55;;;2.20;99.90;;;;;;4968532;28;20535;-76
2020/12/14 02:00:28;;;;;;;12.32;8.85;;;;;;;;;;4969060;28;20078;-76
2020/12/14 02:02:54;;;;;;;13.65;9.57;;;;;;;;;;4968197;28;20373;-77
2020/12/14 02:05:20;;;;;;;14.10;9.95;;;;;;;;;;4968713;28;20031;-77
2020/12/14 02:07:46;;;;;;;14.10;10.13;;;;;;;;;;4967691;28;20031;-77
2020/12/14 02:10:12;;;;;;;12.55;9.07;;;;;;;;;;4968307;28;20089;-77
2020/12/14 02:12:38;;;;;;;12.50;8.77;;;;;;;;;;4969110;28;20106;-77
2020/12/14 02:15:04;;;;;;;13.43;8.45;;;;;;;;;;4968682;28;20437;-77
2020/12/14 02:17:30;;;;;;;16.92;8.63;;;2.20;99.90;;;;;;4968331;28;20513;-77
2020/12/14 02:19:56;;;;;;;12.95;8.60;;;2.20;99.90;;;;;;4968545;28;20058;-78
2020/12/14 02:22:24;;;;;;;12.68;8.20;;;2.10;99.90;;;;;;4967602;28;20481;-77
2020/12/14 02:24:52;;;;;;;11.55;7.95;;;2.30;99.90;;;;;;4968410;28;20031;-77
2020/12/14 02:27:18;;;;;;;12.75;8.18;;;2.20;99.90;;;;;;4967528;28;20085;-77
2020/12/14 02:29:44;;;;;;;12.65;8.02;;;2.20;99.90;;;;;;4967433;28;20027;-78
2020/12/14 02:32:13;;;;;;;14.02;9.18;;;2.10;99.90;;;;;;4968839;28;20034;-78
2020/12/14 02:34:40;;;;;;;11.70;7.75;;;2.10;99.90;;;;;;4968663;28;20470;-77
2020/12/14 02:37:10;;;;;;;12.18;8.50;;;2.20;99.90;;;;;;4968715;28;20108;-77
2020/12/14 02:39:37;;;;;;;12.68;8.70;;;2.20;99.90;;;;;;4969041;28;20030;-78
2020/12/14 02:42:08;;;;;;;11.82;7.78;;;2.20;99.90;;;;;;4967683;28;20031;-77
2020/12/14 02:44:34;;;;;;;12.05;8.30;;;2.20;99.90;;;;;;4968273;28;20035;-77
2020/12/14 02:47:00;;;;;;;16.15;8.82;;;2.20;99.90;;;;;;4966342;28;20023;-77
2020/12/14 02:49:25;;;;;;;14.65;8.57;;;2.20;99.90;;;;;;4967768;28;20046;-78
2020/12/14 02:51:51;;;;;;;12.10;8.10;;;;;;;;;;4967301;28;20481;-78
2020/12/14 02:54:17;;;;;;;12.15;8.25;;;;;;;;;;4968620;28;20150;-77
2020/12/14 02:56:44;;;;;;;14.63;8.18;;;;;;;;;;4967292;28;20633;-78
2020/12/14 02:59:16;;;;;;;11.98;8.20;;;;;;;;;;4968473;28;20022;-77
2020/12/14 03:01:42;;;;;;;12.13;8.43;;;;;;;;;;4968692;28;20042;-77
2020/12/14 03:04:12;;;;;;;12.57;7.63;;;;;;;;;;4969779;28;20030;-75
2020/12/14 03:06:37;;;;;;;13.27;8.68;;;2.30;99.90;;;;;;4969951;28;20027;-77
2020/12/14 03:09:04;;;;;;;12.73;8.90;;;2.50;99.90;;;;;;4971450;28;20023;-77
2020/12/14 03:11:30;;;;;;;15.20;9.00;;;2.30;99.90;;;;;;4986246;28;20027;-77
2020/12/14 03:13:56;;;;;;;12.57;7.85;;;2.40;99.90;;;;;;4970852;28;20027;-76
2020/12/14 03:16:21;;;;;;;14.80;8.48;;;2.40;99.90;;;;;;4970908;28;20081;-77
2020/12/14 03:18:47;;;;;;;13.73;8.25;;;2.40;99.90;;;;;;4970941;28;20501;-77
2020/12/14 03:21:13;;;;;;;9.55;6.55;;;2.40;99.90;;;;;;4970389;28;20441;-77
2020/12/14 03:23:38;;;;;;;10.77;7.07;;;2.60;99.90;;;;;;4973194;28;20093;-77
2020/12/14 03:26:04;;;;;;;13.07;8.00;;;2.40;99.90;;;;;;4974406;28;20027;-77
2020/12/14 03:28:29;;;;;;;11.88;7.38;;;2.30;99.90;;;;;;4974376;28;20035;-77
2020/12/14 03:30:55;;;;;;;11.77;7.53;;;2.40;99.90;;;;;;4989497;28;20023;-77
2020/12/14 03:33:21;;;;;;;13.13;7.03;;;2.30;99.90;;;;;;4974560;28;20110;-77
2020/12/14 03:35:47;;;;;;;14.48;7.55;;;2.10;99.90;;;;;;4972686;28;20393;-77
2020/12/14 03:38:16;;;;;;;11.13;7.28;;;2.30;99.90;;;;;;4974322;28;20023;-77
2020/12/14 03:40:43;;;;;;;11.57;7.13;;;2.10;99.90;;;;;;4974320;28;20448;-77
2020/12/14 03:43:09;;;;;;;14.23;7.65;;;2.20;99.90;;;;;;4974208;28;20541;-77
2020/12/14 03:45:35;;;;;;;13.18;8.80;;;2.00;99.90;;;;;;4973915;28;20035;-77
2020/12/14 03:48:01;;;;;;;15.68;10.13;;;;;;;;;;4972939;28;20049;-77
2020/12/14 03:50:27;;;;;;;15.10;9.35;;;;;;;;;;4974315;28;20034;-78
2020/12/14 03:52:53;;;;;;;18.50;10.52;;;;;;;;;;4972732;28;20023;-78
2020/12/14 03:55:19;;;;;;;18.42;11.18;;;;;;;;;;4972668;28;20058;-78
2020/12/14 03:57:45;;;;;;;19.20;11.60;;;;;;;;;;4973853;28;20027;-77
2020/12/14 04:00:11;;;;;;;18.52;10.75;;;;;;;;;;4974062;28;20038;-77
2020/12/14 04:02:37;;;;;;;19.33;10.85;;;;;;;;;;4976996;28;20089;-77
2020/12/14 04:05:03;;;;;;;19.45;11.02;;;;;;;;;;4976478;28;20117;-77
2020/12/14 04:07:29;;;;;;;20.02;11.50;;;;;;;;;;4932867;28;20408;-77
2020/12/14 04:09:55;;;;;;;21.02;10.90;;;;;;;;;;4947671;28;20062;-77
2020/12/14 04:12:21;;;;;;;16.42;10.70;;;;;;;;;;4950103;28;20529;-77
2020/12/14 04:14:47;;;;;;;16.73;10.15;;;;;;;;;;4949693;28;20106;-78
2020/12/14 04:17:13;;;;;;;18.52;11.43;;;;;;;;;;4951073;28;20025;-77
2020/12/14 04:19:39;;;;;;;17.08;11.00;;;;;;;;;;4966656;28;20492;-77
2020/12/14 04:22:09;;;;;;;17.60;11.55;;;;;;;;;;4966687;28;20103;-77
2020/12/14 04:24:35;;;;;;;17.25;10.20;;;;;;;;;;4965924;28;20478;-77
2020/12/14 04:27:02;;;;;;;16.90;10.73;;;;;;;;;;4966496;28;20153;-77
2020/12/14 04:29:28;;;;;;;16.17;10.35;;;;;;;;;;4951985;28;20023;-77
2020/12/14 04:31:54;;;;;;;16.48;10.02;;;;;;;;;;4966532;28;20475;-77
2020/12/14 04:34:20;;;;;;;16.25;10.02;;;;;;;;;;4950448;28;20027;-77
2020/12/14 04:36:46;;;;;;;16.75;10.32;;;;;;;;;;4966291;28;20059;-77
2020/12/14 04:39:13;;;;;;;17.65;11.35;;;;;;;;;;4966253;28;20882;-78
2020/12/14 04:41:39;;;;;;;15.02;9.75;;;;;;;;;;4951274;28;20576;-77
2020/12/14 04:44:06;;;;;;;18.33;11.32;;;;;;;;;;4965552;28;20145;-76
2020/12/14 04:46:33;;;;;;;18.63;11.63;;;;;;;;;;4951114;28;20174;-77
2020/12/14 04:49:00;;;;;;;16.73;11.05;;;;;;;;;;4951329;28;20482;-77
2020/12/14 04:51:27;;;;;;;16.88;11.02;;;;;;;;;;4951229;28;20031;-77
2020/12/14 04:53:53;;;;;;;14.82;10.20;;;;;;;;;;4965996;28;20034;-77
2020/12/14 04:56:26;;;;;;;15.90;10.68;;;;;;;;;;4950708;28;20401;-77
2020/12/14 04:58:52;;;;;;;18.05;11.55;;;;;;;;;;4951430;28;20099;-77
2020/12/14 05:01:18;;;;;;;20.67;12.50;;;;;;;;;;4967150;28;20126;-76
2020/12/14 05:03:44;;;;;;;18.98;12.43;;;;;;;;;;4966533;28;20023;-76
2020/12/14 05:06:10;;;;;;;18.92;12.30;;;;;;;;;;4951185;28;20042;-77
2020/12/14 05:08:36;;;;;;;17.67;12.27;;;;;;;;;;4965700;28;20023;-76
2020/12/14 05:11:02;;;;;;;21.13;13.60;;;;;;;;;;4965495;28;20503;-75
2020/12/14 05:13:29;;;;;;;21.67;12.98;;;;;;;;;;4951576;28;20031;-77
2020/12/14 05:15:55;;;;;;;21.10;13.55;;;;;;;;;;4950542;28;20034;-77
2020/12/14 05:18:26;;;;;;;22.90;14.20;;;;;;;;;;4965046;28;20027;-77
2020/12/14 05:20:59;;;;;;;16.98;11.88;;;;;;;;;;4950964;28;20023;-77
2020/12/14 05:23:26;;;;;;;20.35;12.80;;;;;;;;;;4965255;28;20027;-77
2020/12/14 05:26:02;;;;;;;18.85;12.50;;;;;;;;;;4950306;28;20031;-76
2020/12/14 05:28:28;;;;;;;21.17;12.20;;;;;;;;;;4950437;28;20023;-76
2020/12/14 05:30:54;;;;;;;20.70;13.13;;;;;;;;;;4965376;28;20035;-76
2020/12/14 05:33:21;;;;;;;17.13;11.30;;;;;;;;;;4965071;28;20031;-77
2020/12/14 05:35:47;;;;;;;18.25;11.43;;;;;;;;;;4964901;28;20078;-77
2020/12/14 05:38:22;;;;;;;16.10;11.35;;;;;;;;;;4965516;28;20086;-77
2020/12/14 05:40:49;;;;;;;19.75;11.68;;;;;;;;;;4950412;28;20019;-77
2020/12/14 05:43:19;;;;;;;18.23;11.48;;;;;;;;;;4965424;28;20034;-76
2020/12/14 05:45:46;;;;;;;20.13;12.88;;;;;;;;;;4964828;28;20050;-77
2020/12/14 05:48:41;;;;;;;20.90;13.90;;;;;;;;;;4965226;28;20116;-77
2020/12/14 05:51:08;;;;;;;22.45;13.48;;;;;;;;;;4953836;28;20048;-76
2020/12/14 05:53:41;;;;;;;23.15;14.35;;;;;;;;;;4965191;28;20028;-77
2020/12/14 05:56:08;;;;;;;25.23;14.15;;;;;;;;;;4950001;28;20031;-76
2020/12/14 05:58:36;;;;;;;22.73;13.37;;;;;;;;;;4965086;28;20030;-77
2020/12/14 06:01:04;;;;;;;24.13;14.07;;;;;;;;;;4949736;28;20027;-76
2020/12/14 06:03:30;;;;;;;21.75;13.45;;;;;;;;;;4964796;28;20043;-76
2020/12/14 06:06:04;;;;;;;21.90;14.55;;;;;;;;;;4964470;28;20039;-77
2020/12/14 06:08:45;;;;;;;22.98;14.00;;;;;;;;;;4964394;28;20039;-76
2020/12/14 06:11:11;;;;;;;23.20;13.57;;;;;;;;;;4949914;28;20031;-76
2020/12/14 06:13:47;;;;;;;21.73;13.40;;;;;;;;;;4949874;28;20106;-77
2020/12/14 06:16:18;;;;;;;26.05;17.45;;;;;;;;;;4964131;28;20023;-77
2020/12/14 06:18:45;;;;;;;24.73;15.90;;;;;;;;;;4964347;28;20031;-77
2020/12/14 06:21:12;;;;;;;30.38;19.55;;;;;;;;;;4949857;28;20038;-77
2020/12/14 06:23:40;;;;;;;28.67;17.80;;;;;;;;;;4964362;28;20405;-76
2020/12/14 06:26:07;;;;;;;35.80;22.58;;;;;;;;;;4964502;28;20031;-77
2020/12/14 06:28:34;;;;;;;33.40;19.77;;;;;;;;;;4949757;28;20058;-77
2020/12/14 06:31:00;;;;;;;42.17;24.75;;;;;;;;;;4964038;28;20085;-76
2020/12/14 06:33:36;;;;;;;30.13;18.75;;;;;;;;;;4964481;28;20708;-77
2020/12/14 06:36:18;;;;;;;26.10;15.38;;;;;;;;;;4949189;28;20405;-77
2020/12/14 06:38:45;;;;;;;27.77;15.68;;;;;;;;;;4949706;28;20433;-76
2020/12/14 06:41:31;;;;;;;29.27;16.77;;;;;;;;;;4949803;28;20751;-75
2020/12/14 06:44:05;;;;;;;27.10;15.85;;;;;;;;;;4964535;28;20039;-76
2020/12/14 06:46:32;;;;;;;28.50;15.93;;;;;;;;;;4949334;28;20043;-77
2020/12/14 06:48:59;;;;;;;27.58;16.55;;;;;;;;;;4949740;28;20113;-77
2020/12/14 06:51:26;;;;;;;29.95;17.73;;;;;;;;;;4963306;28;20071;-76
2020/12/14 06:53:54;;;;;;;27.42;16.20;;;;;;;;;;4949377;28;20090;-77
2020/12/14 06:56:26;;;;;;;24.77;15.57;;;;;;;;;;4950132;28;20556;-77
2020/12/14 06:58:52;;;;;;;24.25;15.05;;;;;;;;;;4953265;28;20023;-76
2020/12/14 07:01:32;;;;;;;29.83;17.63;;;;;;;;;;4968206;28;20024;-77
2020/12/14 07:03:58;;;;;;;26.02;16.08;;;;;;;;;;4953470;28;20102;-75
2020/12/14 07:06:26;;;;;;;25.10;15.27;;;;;;;;;;4968042;28;20023;-76
2020/12/14 07:08:52;;;;;;;25.35;16.50;;;;;;;;;;4953354;28;20027;-77
2020/12/14 07:11:19;;;;;;;26.02;16.08;;;;;;;;;;4953216;28;20046;-77
2020/12/14 07:13:46;;;;;;;27.02;16.67;;;;;;;;;;4953096;28;20038;-76
2020/12/14 07:16:13;;;;;;;26.38;16.85;;;;;;;;;;4952584;28;20549;-77
2020/12/14 07:18:40;;;;;;;29.53;16.87;;;;;;;;;;4953295;28;20027;-77
2020/12/14 07:21:10;;;;;;;;;;;1.70;99.90;;;;;;4953320;28;20694;-77
2020/12/14 07:23:38;;;;;;;31.73;17.75;;;2.20;99.90;;;;;;4952615;28;19906;-78
2020/12/14 07:26:05;;;;;;;37.03;18.58;;;2.10;99.90;;;;;;4952432;28;20024;-77
2020/12/14 07:28:38;;;;;;;57.15;29.70;;;1.90;99.90;;;;;;4953001;29;20691;-75
2020/12/14 07:31:13;;;;;;;34.38;18.92;;;2.00;99.90;;;;;;4952629;28;20053;-77
2020/12/14 07:33:40;;;;;;;35.33;19.75;;;2.00;99.90;;;;;;4952823;28;20050;-77
2020/12/14 07:36:10;;;;;;;34.42;20.35;;;1.90;99.90;;;;;;4951198;28;20060;-77
2020/12/14 07:38:48;;;;;;;83.78;39.63;;;2.00;99.90;;;;;;4951123;28;20019;-77
2020/12/14 07:41:14;;;;;;;62.55;34.45;;;1.90;99.90;;;;;;4952780;28;20033;-77
2020/12/14 07:43:47;;;;;;;35.97;20.77;;;1.90;99.90;;;;;;4951290;28;20437;-77
2020/12/14 07:46:25;;;;;;;49.03;29.50;;;2.00;99.90;;;;;;4952035;29;20066;-76
2020/12/14 07:48:58;;;;;;;39.60;23.05;;;2.10;99.90;;;;;;4952289;29;20035;-77
2020/12/14 07:51:25;;;;;;;46.03;26.33;;;2.10;99.90;;;;;;4951234;28;20093;-76
2020/12/14 07:53:52;;;;;;;44.40;25.63;;;2.30;99.90;;;;;;4952184;29;20110;-77
2020/12/14 07:56:19;;;;;;;26.55;16.52;;;2.40;99.90;;;;;;4951999;29;20479;-77
2020/12/14 07:58:49;;;;;;;24.00;16.38;;;2.70;99.90;;;;;;4952668;28;20050;-77
2020/12/14 08:01:19;;;;;;;28.52;17.58;;;2.70;99.90;;;;;;4952071;29;20110;-78
2020/12/14 08:03:46;;;;;;;32.15;20.92;;;2.80;99.90;;;;;;4952536;28;20026;-78
2020/12/14 08:06:18;;;;;;;27.60;16.80;;;2.90;99.90;;;;;;4951923;29;20027;-76
2020/12/14 08:08:49;;;;;;;31.90;22.05;;;3.10;99.90;;;;;;4950809;28;20027;-77
2020/12/14 08:11:18;;;;;;;28.02;17.80;;;3.20;99.90;;;;;;4952047;29;20111;-77
2020/12/14 08:13:46;;;;;;;24.63;15.68;;;3.20;99.90;;;;;;4952348;29;20034;-77
2020/12/14 08:16:20;;;;;;;24.60;16.42;;;3.40;99.90;;;;;;4954199;28;20019;-77
2020/12/14 08:18:48;;;;;;;27.23;16.70;;;3.30;99.90;;;;;;4969733;28;20129;-77
2020/12/14 08:21:24;;;;;;;25.27;15.93;;;3.40;99.90;;;;;;4970215;28;20513;-77
2020/12/14 08:23:51;;;;;;;23.08;15.00;;;3.50;99.90;;;;;;4969795;28;20031;-77
2020/12/14 08:26:30;;;;;;;25.80;16.73;;;3.60;99.90;;;;;;4969301;28;20642;-77
2020/12/14 08:29:00;;;;;;;25.80;17.02;;;3.70;99.90;;;;;;4969137;28;20401;-77
2020/12/14 08:31:26;;;;;;;25.23;16.50;;;3.90;99.90;;;;;;4969554;28;20509;-76
2020/12/14 08:33:56;;;;;;;30.98;21.15;;;4.00;99.90;;;;;;4971004;28;20093;-76
2020/12/14 08:36:24;;;;;;;29.48;18.75;;;3.70;99.90;;;;;;4970215;28;20031;-76
2020/12/14 08:38:51;;;;;;;27.13;17.15;;;3.30;99.90;;;;;;4970689;28;20030;-77
2020/12/14 08:41:24;;;;;;;24.48;16.40;;;3.30;99.90;;;;;;4969210;28;20490;-76
2020/12/14 08:43:53;;;;;;;25.35;16.10;;;3.40;99.90;;;;;;4970930;28;20346;-77
2020/12/14 08:46:20;;;;;;;26.15;16.50;;;3.30;99.90;;;;;;4969867;28;20077;-76
2020/12/14 08:48:52;;;;;;;26.38;17.85;;;3.40;99.90;;;;;;4970273;28;20015;-77
2020/12/14 08:51:32;;;;;;;26.88;17.48;;;3.50;99.90;;;;;;4959750;28;20094;-77
2020/12/14 08:54:34;;;;;;;21.95;15.02;;;3.70;99.90;;;;;;4969734;28;20045;-76
2020/12/14 08:57:00;;;;;;;23.58;16.23;;;4.00;99.90;;;;;;4986526;28;20022;-76
2020/12/14 08:59:27;;;;;;;23.80;16.40;;;4.00;99.90;;;;;;4965550;28;20386;-76
2020/12/14 09:01:56;;;;;;;24.00;16.20;;;4.10;99.90;;;;;;4969963;28;20485;-77
2020/12/14 09:04:40;;;;;;;25.65;17.15;;;4.30;99.90;;;;;;4967682;28;20038;-77
2020/12/14 09:07:06;;;;;;;33.20;21.70;;;4.50;99.90;;;;;;4949558;28;20023;-77
2020/12/14 09:09:34;;;;;;;18.88;13.35;;;4.70;99.90;;;;;;4949323;28;20027;-77
2020/12/14 09:12:08;;;;;;;18.92;11.93;;;5.30;99.90;;;;;;4950860;29;20110;-77
2020/12/14 09:14:34;;;;;;;18.98;12.90;;;5.70;99.90;;;;;;4950215;29;20101;-76
2020/12/14 09:17:03;;;;;;;19.05;12.45;;;6.20;99.90;;;;;;4949383;28;20031;-77
2020/12/14 09:19:31;;;;;;;15.05;11.50;;;6.40;99.90;;;;;;4950101;28;20031;-76
2020/12/14 09:21:57;;;;;;;16.50;11.73;;;6.70;99.90;;;;;;4950731;28;20031;-76
2020/12/14 09:24:28;;;;;;;18.02;11.05;;;6.00;99.90;;;;;;4950076;29;20023;-76
2020/12/14 09:27:01;;;;;;;18.50;11.90;;;6.70;99.90;;;;;;4950558;29;20023;-76
2020/12/14 09:29:27;;;;;;;16.25;11.35;;;6.70;99.90;;;;;;4949924;29;20046;-76
2020/12/14 09:31:55;;;;;;;13.80;9.85;;;6.70;99.90;;;;;;4950165;29;20035;-76
2020/12/14 09:34:21;;;;;;;12.93;9.35;;;7.70;99.90;;;;;;4949932;29;20402;-76
2020/12/14 09:36:54;;;;;;;12.30;8.93;;;8.50;99.90;;;;;;4950030;29;20030;-75
2020/12/14 09:39:22;;;;;;;12.98;9.00;;;9.20;99.90;;;;;;4950149;29;20064;-76
2020/12/14 09:41:48;;;;;;;;;;;9.30;99.90;;;;;;4949589;28;20162;-76
2020/12/14 09:44:14;;;;;;;11.93;8.23;;;10.00;99.90;;;;;;4949454;28;19997;-76
2020/12/14 09:46:39;;;;;;;11.30;8.48;;;10.60;99.90;;;;;;4949084;28;20027;-77
2020/12/14 09:49:05;;;;;;;13.38;8.68;;;10.70;99.90;;;;;;4950337;29;20038;-77
2020/12/14 09:51:34;;;;;;;11.52;8.43;;;10.40;99.90;;;;;;4948690;28;20035;-77
2020/12/14 09:54:00;;;;;;;11.60;8.32;;;10.90;99.90;;;;;;4948293;28;20557;-76
2020/12/14 09:56:26;;;;;;;11.10;7.95;;;11.20;99.80;;;;;;4949701;29;20472;-76
2020/12/14 09:58:52;;;;;;;11.60;8.25;;;11.50;98.80;;;;;;4948392;29;20027;-75
2020/12/14 10:01:17;;;;;;;13.00;9.30;;;11.60;99.10;;;;;;4949941;29;20023;-77
2020/12/14 10:03:43;;;;;;;11.55;8.32;;;11.50;97.30;;;;;;4949949;29;20396;-76
2020/12/14 10:06:10;;;;;;;10.07;7.85;;;12.10;98.00;;;;;;4949437;29;20038;-77
2020/12/14 10:08:36;;;;;;;11.10;7.95;;;13.00;96.10;;;;;;4948450;28;20393;-76
2020/12/14 10:11:02;;;;;;;12.48;8.52;;;13.00;94.40;;;;;;4948235;29;20335;-78
2020/12/14 10:13:27;;;;;;;11.48;7.68;;;13.10;94.10;;;;;;4949210;29;20098;-77
2020/12/14 10:15:53;;;;;;;9.98;7.57;;;13.10;92.60;;;;;;4949206;29;20130;-76
2020/12/14 10:18:19;;;;;;;10.88;7.75;;;13.00;93.20;;;;;;4949693;29;20067;-78
2020/12/14 10:20:45;;;;;;;10.77;7.45;;;12.80;92.90;;;;;;4949581;29;20019;-76
2020/12/14 10:23:12;;;;;;;10.63;8.10;;;12.40;93.60;;;;;;4949385;28;20023;-75
2020/12/14 10:25:39;;;;;;;9.67;7.43;;;11.90;94.90;;;;;;4949108;29;20142;-76
2020/12/14 10:28:05;;;;;;;12.68;8.85;;;11.40;96.60;;;;;;4947938;28;20059;-77
2020/12/14 10:30:32;;;;;;;12.88;8.40;;;11.30;95.10;;;;;;4949112;28;20038;-77
2020/12/14 10:32:58;;;;;;;11.20;7.90;;;10.60;97.10;;;;;;4947966;29;20581;-77
2020/12/14 10:35:24;;;;;;;9.18;7.45;;;11.10;97.40;;;;;;4948920;29;20122;-77
2020/12/14 10:37:49;;;;;;;11.65;8.95;;;11.40;96.80;;;;;;4949390;29;20027;-77
2020/12/14 10:40:15;;;;;;;11.07;8.10;;;11.80;96.70;;;;;;4949085;29;20050;-78
2020/12/14 10:42:42;;;;;;;12.40;7.53;;;12.00;95.60;;;;;;4949284;29;20473;-78
2020/12/14 10:45:08;;;;;;;11.27;8.10;;;12.90;94.50;;;;;;4949324;28;20093;-78
2020/12/14 10:47:34;;;;;;;10.43;7.85;;;13.00;93.70;;;;;;4968425;28;20102;-78
2020/12/14 10:50:00;;;;;;;11.70;7.50;;;13.20;93.00;;;;;;4963588;28;20026;-77
2020/12/14 10:52:25;;;;;;;10.65;7.18;;;12.80;94.50;;;;;;4966039;28;20026;-78
2020/12/14 10:54:51;;;;;;;10.67;8.00;;;12.80;94.00;;;;;;4965625;28;20034;-78
2020/12/14 10:57:17;;;;;;;9.85;7.72;;;12.10;93.70;;;;;;4965393;28;20019;-78
2020/12/14 10:59:44;;;;;;;14.35;7.35;;;11.80;95.70;;;;;;4966981;28;20030;-78
2020/12/14 11:02:10;;;;;;;9.65;7.32;;;12.20;93.50;;;;;;4968561;28;20076;-77
2020/12/14 11:04:37;;;;;;;11.43;7.63;;;12.20;94.70;;;;;;4966263;28;20105;-76
2020/12/14 11:07:02;;;;;;;11.87;7.53;;;12.20;96.10;;;;;;4967113;28;20027;-77
2020/12/14 11:09:28;;;;;;;11.68;7.75;;;12.10;94.50;;;;;;4947128;28;20090;-78
2020/12/14 11:11:53;;;;;;;12.85;8.05;;;11.40;95.30;;;;;;4966499;28;20069;-78
2020/12/14 11:14:19;;;;;;;10.27;7.28;;;11.00;96.80;;;;;;4962101;28;20062;-78
2020/12/14 11:16:46;;;;;;;10.07;7.22;;;11.30;96.40;;;;;;4970890;28;20023;-77
2020/12/14 11:19:11;;;;;;;11.32;7.57;;;11.60;96.50;;;;;;4968269;28;20031;-77
2020/12/14 11:21:37;;;;;;;11.23;7.07;;;12.00;95.70;;;;;;4965439;28;20023;-77
2020/12/14 11:24:04;;;;;;;10.00;7.10;;;12.00;95.30;;;;;;4966124;28;20110;-77
2020/12/14 11:26:30;;;;;;;11.75;8.10;;;12.10;95.10;;;;;;4966236;28;20443;-77
2020/12/14 11:28:56;;;;;;;9.23;6.78;;;12.10;95.90;;;;;;4967918;28;20034;-78
2020/12/14 11:31:22;;;;;;;9.68;7.50;;;11.70;96.30;;;;;;4965558;28;20370;-77
2020/12/14 11:33:48;;;;;;;8.85;6.90;;;12.00;95.70;;;;;;4966315;28;20062;-77
2020/12/14 11:36:14;;;;;;;10.50;7.40;;;12.00;95.30;;;;;;4968206;28;20191;-80
2020/12/14 11:38:40;;;;;;;10.90;7.13;;;12.00;95.80;;;;;;4969166;28;20147;-80
2020/12/14 11:41:05;;;;;;;9.65;7.10;;;12.00;95.30;;;;;;4967085;28;20026;-80
2020/12/14 11:43:31;;;;;;;11.27;7.03;;;11.90;95.30;;;;;;4969065;28;20027;-79
2020/12/14 11:45:57;;;;;;;11.30;7.32;;;11.60;96.00;;;;;;4970817;28;20041;-78
2020/12/14 11:48:22;;;;;;;9.30;6.97;;;11.60;96.40;;;;;;4970145;28;20158;-79
2020/12/14 11:50:49;;;;;;;9.85;7.05;;;11.50;97.30;;;;;;4969317;28;20382;-78
2020/12/14 11:53:15;;;;;;;11.90;8.50;;;11.50;96.60;;;;;;4969375;28;20535;-77
2020/12/14 11:55:41;;;;;;;10.30;7.32;;;10.70;99.60;;;;;;4969531;28;20035;-76
2020/12/14 11:58:06;;;;;;;11.88;8.65;;;11.10;98.30;;;;;;4969701;28;20019;-77
2020/12/14 12:00:33;;;;;;;11.55;6.88;;;11.40;98.50;;;;;;4969117;28;20035;-77
2020/12/14 12:02:58;;;;;;;14.88;10.95;;;11.70;97.80;;;;;;4970310;28;20026;-78
2020/12/14 12:05:24;;;;;;;11.15;7.65;;;12.00;97.60;;;;;;4969416;28;20560;-78
2020/12/14 12:07:50;;;;;;;9.05;6.55;;;12.40;96.90;;;;;;4969966;28;20027;-78
2020/12/14 12:10:16;;;;;;;7.93;6.25;;;13.00;96.00;;;;;;4969312;28;20027;-77
2020/12/14 12:12:42;;;;;;;11.70;6.43;;;13.60;94.10;;;;;;4970193;28;20057;-78
2020/12/14 12:15:08;;;;;;;9.52;6.78;;;13.90;93.50;;;;;;4969650;28;20066;-77
2020/12/14 12:17:34;;;;;;;11.05;6.20;;;14.00;93.30;;;;;;4968958;28;20493;-78
2020/12/14 12:19:59;;;;;;;9.55;6.63;;;14.00;93.20;;;;;;4969401;28;20525;-77
2020/12/14 12:22:25;;;;;;;9.60;6.50;;;13.50;93.90;;;;;;4968289;28;20077;-78
2020/12/14 12:24:50;;;;;;;13.30;7.07;;;13.70;93.10;;;;;;4968889;28;20449;-78
2020/12/14 12:27:16;;;;;;;10.57;6.60;;;13.70;92.80;;;;;;4970385;28;20031;-76
2020/12/14 12:29:42;;;;;;;8.15;6.10;;;13.80;92.60;;;;;;4969010;28;20382;-79
2020/12/14 12:32:07;;;;;;;12.57;7.72;;;13.70;92.70;;;;;;4968347;28;20110;-77
2020/12/14 12:34:34;;;;;;;9.05;6.20;;;13.80;92.90;;;;;;4970340;28;20481;-79
2020/12/14 12:37:01;;;;;;;8.98;6.15;;;14.10;92.00;;;;;;4968681;28;20033;-79
2020/12/14 12:39:27;;;;;;;9.98;6.90;;;13.90;92.90;;;;;;4968487;28;20031;-79
2020/12/14 12:41:54;;;;;;;11.23;6.38;;;14.10;92.10;;;;;;4969363;28;20034;-79
2020/12/14 12:44:20;;;;;;;11.98;6.90;;;14.40;91.20;;;;;;4967954;28;20078;-78
2020/12/14 12:46:46;;;;;;;9.48;6.60;;;14.30;91.00;;;;;;4968849;28;20508;-79
2020/12/14 12:49:12;;;;;;;8.80;6.20;;;14.20;91.30;;;;;;4968726;28;20031;-79
2020/12/14 12:51:50;;;;;;;8.85;6.13;;;14.00;91.50;;;;;;4969414;28;20104;-80
2020/12/14 12:54:16;;;;;;;9.43;6.57;;;13.60;92.00;;;;;;4968168;28;20482;-78
2020/12/14 12:56:42;;;;;;;9.82;6.28;;;13.20;93.30;;;;;;4969974;28;20477;-79
2020/12/14 12:59:08;;;;;;;8.75;6.20;;;12.70;93.50;;;;;;4969167;28;20027;-80
2020/12/14 13:01:33;;;;;;;9.40;6.70;;;12.50;94.20;;;;;;4970091;28;20474;-79
2020/12/14 13:03:59;;;;;;;10.18;6.30;;;12.20;94.80;;;;;;4970342;28;20033;-79
2020/12/14 13:06:29;;;;;;;9.13;6.18;;;12.10;95.60;;;;;;4968880;28;20031;-79
2020/12/14 13:08:54;;;;;;;8.95;6.40;;;11.80;96.00;;;;;;4969252;28;20027;-80
2020/12/14 13:11:33;;;;;;;11.63;6.80;;;11.50;97.20;;;;;;4969000;28;20037;-79
2020/12/14 13:13:59;;;;;;;12.13;7.97;;;11.40;97.40;;;;;;4970209;28;20031;-79